Current Weather

Prince Mohammad Bin Abdulaziz

Prince Mohammad Bin Abdulaziz, Saudi Arabia (OEMA)

Report from: Monday, May 23, 2022 10:00 AM +03
Current time: Monday, May 23, 2022 10:45 AM +03

Nearby weather
Weather history
Weather forecast

Temperature35.0°C (95.0°F)
Heat index32.3°C (90.2°F)
Dew point-2.0°C (28.4°F)
Winds Calm
Clouds Sky clear
Altimeter29.85 in.Hg (1011 mB)
Relative humidity9 %
Density altitude2,432 ft. (741 m)
Remarks Ceiling and visibility OK
No significant changes expected in the next two hours
Flight conditions Visual Meteorological Conditions
Raw dataOEMA 230700Z 00000KT CAVOK 35/M02 Q1011 NOSIG
An error has occurred. This application may no longer respond until reloaded. Reload 🗙